Time;durP1;ratioP1;P1;durP2;ratioP2;P2;SDS_P1;SDS_P2;PMS_P1;PMS_P2;Temp;Humidity;BMP_temperature;BMP_pressure;BME280_temperature;BME280_humidity;BME280_pressure;Samples;Min_cycle;Max_cycle;Signal;HPM_P1;HPM_P2
2023/12/03 00:01:03;;;;;;;24.45;13.52;;;;;;;;;;4913284;29;20585;-81
2023/12/03 00:03:28;;;;;;;23.50;13.35;;;;;;;;;;4912240;29;20028;-81
2023/12/03 00:05:53;;;;;;;24.23;13.07;;;;;;;;;;4911205;29;20087;-82
2023/12/03 00:08:19;;;;;;;23.05;11.98;;;;;;;;;;4912844;29;20278;-82
2023/12/03 00:10:44;;;;;;;27.30;13.45;;;;;;;;;;4928477;29;20020;-82
2023/12/03 00:13:09;;;;;;;24.03;13.37;;;;;;;;;;4914294;29;20017;-82
2023/12/03 00:15:35;;;;;;;23.50;13.63;;;;;;;;;;4923284;29;20271;-81
2023/12/03 00:18:00;;;;;;;25.55;13.43;;;;;;;;;;4926647;29;20532;-82
2023/12/03 00:20:25;;;;;;;23.43;12.73;;;;;;;;;;4928027;29;20028;-81
2023/12/03 00:22:50;;;;;;;27.07;14.53;;;;;;;;;;4913700;29;20269;-82
2023/12/03 00:25:15;;;;;;;30.65;16.98;;;;;;;;;;4915730;29;20317;-82
2023/12/03 00:27:41;;;;;;;36.88;18.75;;;;;;;;;;4917742;29;20123;-82
2023/12/03 00:30:07;;;;;;;27.70;15.25;;;;;;;;;;4917343;29;20035;-82
2023/12/03 00:32:32;;;;;;;29.00;15.13;;;;;;;;;;4915224;29;20017;-82
2023/12/03 00:34:57;;;;;;;32.65;19.25;;;;;;;;;;4917524;29;20028;-82
2023/12/03 00:37:23;;;;;;;33.17;17.63;;;;;;;;;;4931656;29;20111;-81
2023/12/03 00:39:48;;;;;;;35.88;18.55;;;;;;;;;;4931666;29;20289;-82
2023/12/03 00:42:13;;;;;;;31.43;17.80;;;;;;;;;;4914918;29;20028;-81
2023/12/03 00:44:38;;;;;;;30.17;16.20;;;;;;;;;;4928335;29;20361;-81
2023/12/03 00:47:03;;;;;;;28.73;17.30;;;;;;;;;;4908751;29;20267;-81
2023/12/03 00:49:29;;;;;;;33.73;17.57;;;;;;;;;;4916482;29;20373;-82
2023/12/03 00:51:54;;;;;;;36.77;17.33;;;;;;;;;;4931991;29;20298;-82
2023/12/03 00:54:19;;;;;;;32.45;18.35;;;;;;;;;;4917586;29;20298;-82
2023/12/03 00:56:45;;;;;;;36.78;15.45;;;;;;;;;;4915809;29;20016;-81
2023/12/03 00:59:10;;;;;;;31.52;16.60;;;;;;;;;;4930769;29;20036;-82
2023/12/03 01:01:35;;;;;;;29.98;15.15;;;;;;;;;;4930362;29;20036;-82
2023/12/03 01:04:00;;;;;;;30.33;15.70;;;;;;;;;;4930903;29;20524;-82
2023/12/03 01:06:26;;;;;;;23.07;14.40;;;;;;;;;;4917750;29;20273;-81
2023/12/03 01:08:51;;;;;;;24.90;14.63;;;;;;;;;;4914401;29;20293;-82
2023/12/03 01:11:16;;;;;;;25.73;14.20;;;;;;;;;;4912686;29;20281;-81
2023/12/03 01:13:41;;;;;;;27.73;14.20;;;;;;;;;;4929272;29;20274;-82
2023/12/03 01:16:13;;;;;;;27.75;15.35;;;;;;;;;;4914558;29;20270;-82
2023/12/03 01:18:38;;;;;;;;;;;;;;;;;;4912523;29;20051;-82
2023/12/03 01:21:04;;;;;;;26.42;11.82;;;;;;;;;;4917556;29;19911;-82
2023/12/03 01:23:29;;;;;;;23.63;13.38;;;;;;;;;;4927535;29;20025;-82
2023/12/03 01:25:54;;;;;;;27.70;13.10;;;;;;;;;;4911408;29;20039;-82
2023/12/03 01:28:20;;;;;;;28.00;14.20;;;;;;;;;;4915044;29;20423;-82
2023/12/03 01:30:45;;;;;;;23.83;12.88;;;;;;;;;;4917304;29;20275;-82
2023/12/03 01:33:11;;;;;;;24.77;13.03;;;;;;;;;;4910501;29;20488;-82
2023/12/03 01:35:36;;;;;;;25.52;14.05;;;;;;;;;;4927960;29;20274;-82
2023/12/03 01:38:01;;;;;;;26.87;14.23;;;;;;;;;;4929193;29;20710;-82
2023/12/03 01:40:26;;;;;;;23.93;13.53;;;;;;;;;;4915586;29;20822;-82
2023/12/03 01:42:52;;;;;;;24.43;13.87;;;;;;;;;;4926182;29;20369;-82
2023/12/03 01:45:17;;;;;;;24.88;12.90;;;;;;;;;;4912192;29;20278;-81
2023/12/03 01:47:42;;;;;;;25.37;13.50;;;;;;;;;;4915654;29;20113;-81
2023/12/03 01:50:08;;;;;;;24.43;14.13;;;;;;;;;;4915184;29;20275;-82
2023/12/03 01:52:36;;;;;;;26.83;12.55;;;;;;;;;;4918370;29;20318;-82
2023/12/03 01:55:03;;;;;;;22.88;12.52;;;;;;;;;;4931285;29;20028;-82
2023/12/03 01:57:28;;;;;;;20.38;12.30;;;;;;;;;;4929155;29;20031;-81
2023/12/03 01:59:53;;;;;;;25.95;13.82;;;;;;;;;;4910448;29;20119;-82
2023/12/03 02:02:19;;;;;;;25.33;13.93;;;;;;;;;;4923261;29;20068;-81
2023/12/03 02:04:44;;;;;;;26.15;14.05;;;;;;;;;;4925243;29;20270;-82
2023/12/03 02:07:09;;;;;;;21.13;12.17;;;;;;;;;;4916047;29;20504;-81
2023/12/03 02:09:35;;;;;;;27.83;12.30;;;;;;;;;;4924639;29;20282;-81
2023/12/03 02:12:00;;;;;;;27.02;13.02;;;;;;;;;;4913347;29;20036;-81
2023/12/03 02:14:26;;;;;;;26.88;14.60;;;;;;;;;;4912912;29;20138;-82
2023/12/03 02:16:51;;;;;;;25.17;13.82;;;;;;;;;;4909292;29;20027;-81
2023/12/03 02:19:16;;;;;;;30.27;14.02;;;;;;;;;;4908560;29;20024;-82
2023/12/03 02:21:42;;;;;;;23.88;14.05;;;;;;;;;;4907156;29;20469;-81
2023/12/03 02:24:07;;;;;;;26.60;14.07;;;;;;;;;;4907517;29;20109;-81
2023/12/03 02:26:32;;;;;;;25.85;13.52;;;;;;;;;;4915069;29;20055;-82
2023/12/03 02:28:57;;;;;;;30.25;13.88;;;;;;;;;;4914317;29;20039;-81
2023/12/03 02:31:23;;;;;;;23.00;13.07;;;;;;;;;;4908156;29;20028;-81
2023/12/03 02:34:17;;;;;;;28.80;13.00;;;;;;;;;;4916815;29;20302;-82
2023/12/03 02:36:43;;;;;;;24.83;12.95;;;;;;;;;;4899190;29;20130;-82
2023/12/03 02:39:08;;;;;;;25.13;12.90;;;;;;;;;;4915167;29;20110;-81
2023/12/03 02:41:33;;;;;;;34.60;14.95;;;;;;;;;;4914902;29;20034;-82
2023/12/03 02:43:58;;;;;;;31.45;15.57;;;;;;;;;;4931051;29;20028;-82
2023/12/03 02:46:24;;;;;;;30.07;14.43;;;;;;;;;;4910262;29;20452;-81
2023/12/03 02:48:49;;;;;;;27.48;13.35;;;;;;;;;;4919687;29;20878;-82
2023/12/03 02:51:14;;;;;;;27.42;13.98;;;;;;;;;;4911364;29;20080;-82
2023/12/03 02:53:40;;;;;;;30.65;14.40;;;;;;;;;;4900983;29;20032;-82
2023/12/03 02:56:05;;;;;;;31.42;15.85;;;;;;;;;;4907213;29;20024;-82
2023/12/03 02:58:31;;;;;;;27.27;14.68;;;;;;;;;;4926541;29;20024;-82
2023/12/03 03:00:56;;;;;;;31.67;15.55;;;;;;;;;;4914160;29;20477;-82
2023/12/03 03:03:21;;;;;;;29.48;14.27;;;;;;;;;;4930445;29;20024;-82
2023/12/03 03:05:46;;;;;;;28.30;14.23;;;;;;;;;;4930594;29;20028;-82
2023/12/03 03:08:12;;;;;;;35.00;16.87;;;;;;;;;;4928518;29;20028;-82
2023/12/03 03:10:37;;;;;;;29.63;15.48;;;;;;;;;;4930090;29;20267;-82
2023/12/03 03:13:02;;;;;;;31.02;17.02;;;;;;;;;;4921768;29;20488;-82
2023/12/03 03:15:28;;;;;;;27.45;16.65;;;;;;;;;;4929323;29;20110;-82
2023/12/03 03:17:53;;;;;;;31.27;14.93;;;;;;;;;;4928712;29;20031;-82
2023/12/03 03:20:21;;;;;;;25.47;13.27;;;;;;;;;;4928727;29;20767;-82
2023/12/03 03:22:47;;;;;;;29.20;14.07;;;;;;;;;;4904965;29;20306;-82
2023/12/03 03:25:12;;;;;;;26.40;14.52;;;;;;;;;;4912150;29;20107;-82
2023/12/03 03:27:37;;;;;;;25.35;13.23;;;;;;;;;;4928100;29;20055;-82
2023/12/03 03:30:04;;;;;;;26.00;14.63;;;;;;;;;;4914093;29;20042;-82
2023/12/03 03:32:29;;;;;;;29.10;14.88;;;;;;;;;;4928004;29;20684;-81
2023/12/03 03:34:55;;;;;;;28.73;15.55;;;;;;;;;;4927823;29;20044;-81
2023/12/03 03:37:21;;;;;;;25.80;14.10;;;;;;;;;;4914879;29;20016;-81
2023/12/03 03:39:46;;;;;;;25.87;14.07;;;;;;;;;;4914442;29;20278;-82
2023/12/03 03:42:11;;;;;;;24.95;14.25;;;;;;;;;;4913361;29;20282;-81
2023/12/03 03:44:37;;;;;;;25.90;13.43;;;;;;;;;;4916036;29;20552;-82
2023/12/03 03:47:03;;;;;;;29.33;14.68;;;;;;;;;;4916652;29;20660;-81
2023/12/03 03:49:28;;;;;;;36.97;15.85;;;;;;;;;;4930563;29;20080;-81
2023/12/03 03:51:54;;;;;;;31.25;14.95;;;;;;;;;;4907597;29;20418;-81
2023/12/03 03:54:19;;;;;;;28.90;14.45;;;;;;;;;;4906518;29;20048;-81
2023/12/03 03:56:45;;;;;;;27.77;14.80;;;;;;;;;;4926722;29;20044;-82
2023/12/03 03:59:10;;;;;;;27.00;14.25;;;;;;;;;;4923447;29;20040;-82
2023/12/03 04:01:40;;;;;;;25.30;13.63;;;;;;;;;;4910966;29;20025;-82
2023/12/03 04:04:05;;;;;;;32.95;14.68;;;;;;;;;;4907397;29;20028;-82
2023/12/03 04:06:31;;;;;;;27.70;13.17;;;;;;;;;;4911156;29;20055;-82
2023/12/03 04:08:56;;;;;;;25.67;14.47;;;;;;;;;;4904898;29;20793;-82
2023/12/03 04:11:21;;;;;;;25.50;12.93;;;;;;;;;;4924979;29;20273;-82
2023/12/03 04:13:46;;;;;;;29.20;14.27;;;;;;;;;;4910248;29;20027;-82
2023/12/03 04:16:19;;;;;;;28.93;14.83;;;;;;;;;;4913537;29;20424;-82
2023/12/03 04:18:45;;;;;;;27.00;13.95;;;;;;;;;;4928591;29;20267;-82
2023/12/03 04:21:13;;;;;;;28.23;13.93;;;;;;;;;;4914029;29;20035;-82
2023/12/03 04:23:39;;;;;;;22.40;12.45;;;;;;;;;;4928917;29;20278;-82
2023/12/03 04:26:07;;;;;;;27.77;12.80;;;;;;;;;;4909793;29;20025;-82
2023/12/03 04:28:32;;;;;;;29.67;15.27;;;;;;;;;;4924669;29;20293;-82
2023/12/03 04:30:57;;;;;;;27.90;13.67;;;;;;;;;;4926857;29;20024;-82
2023/12/03 04:33:22;;;;;;;25.10;14.20;;;;;;;;;;4926274;29;20670;-82
2023/12/03 04:35:47;;;;;;;22.73;12.90;;;;;;;;;;4914422;29;21414;-82
2023/12/03 04:38:13;;;;;;;25.80;13.63;;;;;;;;;;4911555;29;20283;-82
2023/12/03 04:40:38;;;;;;;23.13;12.93;;;;;;;;;;4904047;29;20264;-82
2023/12/03 04:43:03;;;;;;;22.73;12.60;;;;;;;;;;4914636;29;20340;-82
2023/12/03 04:45:28;;;;;;;25.92;13.43;;;;;;;;;;4907682;29;20263;-82
2023/12/03 04:47:53;;;;;;;30.00;14.43;;;;;;;;;;4914271;29;20039;-82
2023/12/03 04:50:19;;;;;;;29.27;14.23;;;;;;;;;;4929153;29;20294;-82
2023/12/03 04:52:44;;;;;;;21.53;12.70;;;;;;;;;;4928538;29;20271;-82
2023/12/03 04:55:09;;;;;;;27.27;13.67;;;;;;;;;;4909228;29;20267;-82
2023/12/03 04:57:34;;;;;;;23.60;13.63;;;;;;;;;;4910856;29;20285;-82
2023/12/03 05:00:00;;;;;;;28.83;12.97;;;;;;;;;;4911894;29;20281;-82
2023/12/03 05:02:25;;;;;;;24.55;13.23;;;;;;;;;;4914363;29;20601;-82
2023/12/03 05:04:50;;;;;;;22.30;12.57;;;;;;;;;;4909551;29;20375;-82
2023/12/03 05:07:16;;;;;;;27.83;14.23;;;;;;;;;;4927419;29;20281;-82
2023/12/03 05:09:41;;;;;;;25.03;13.83;;;;;;;;;;4929300;29;20301;-82
2023/12/03 05:12:06;;;;;;;24.83;12.70;;;;;;;;;;4911714;29;20647;-82
2023/12/03 05:14:32;;;;;;;21.90;12.20;;;;;;;;;;4917890;29;20747;-82
2023/12/03 05:16:58;;;;;;;24.52;12.75;;;;;;;;;;4915630;29;20028;-82
2023/12/03 05:19:23;;;;;;;25.00;13.70;;;;;;;;;;4916452;29;20118;-82
2023/12/03 05:21:48;;;;;;;28.88;13.27;;;;;;;;;;4917511;29;20301;-82
2023/12/03 05:24:13;;;;;;;24.93;13.93;;;;;;;;;;4932097;29;20398;-82
2023/12/03 05:26:38;;;;;;;22.17;12.17;;;;;;;;;;4912996;29;20297;-82
2023/12/03 05:29:04;;;;;;;28.27;12.97;;;;;;;;;;4927333;29;20286;-82
2023/12/03 05:31:29;;;;;;;22.65;12.63;;;;;;;;;;4930074;29;20521;-82
2023/12/03 05:33:54;;;;;;;26.40;13.60;;;;;;;;;;4911950;29;20088;-82
2023/12/03 05:36:23;;;;;;;26.73;13.57;;;;;;;;;;4911491;29;20275;-82
2023/12/03 05:38:48;;;;;;;23.60;12.60;;;;;;;;;;4907869;29;20275;-82
2023/12/03 05:41:14;;;;;;;24.10;12.10;;;;;;;;;;4915499;29;20396;-82
2023/12/03 05:43:40;;;;;;;25.63;12.43;;;;;;;;;;4932079;29;20485;-82
2023/12/03 05:46:05;;;;;;;21.33;12.40;;;;;;;;;;4917171;29;20024;-82
2023/12/03 05:48:30;;;;;;;27.75;11.55;;;;;;;;;;4910473;29;20484;-82
2023/12/03 05:50:56;;;;;;;24.92;13.60;;;;;;;;;;4912128;29;20024;-82
2023/12/03 05:53:21;;;;;;;25.40;13.57;;;;;;;;;;4925233;29;20432;-82
2023/12/03 05:55:46;;;;;;;23.67;13.07;;;;;;;;;;4917489;29;20771;-81
2023/12/03 05:58:11;;;;;;;25.27;12.83;;;;;;;;;;4906167;29;20894;-82
2023/12/03 06:00:37;;;;;;;25.77;12.40;;;;;;;;;;4898933;29;20315;-82
2023/12/03 06:03:02;;;;;;;23.33;13.05;;;;;;;;;;4906813;29;20266;-82
2023/12/03 06:05:27;;;;;;;22.08;10.85;;;;;;;;;;4914084;29;20032;-82
2023/12/03 06:07:53;;;;;;;21.13;11.35;;;;;;;;;;4904212;29;20023;-82
2023/12/03 06:10:18;;;;;;;27.05;12.60;;;;;;;;;;4926605;29;20536;-82
2023/12/03 06:12:43;;;;;;;24.27;11.77;;;;;;;;;;4917157;29;20020;-82
2023/12/03 06:15:09;;;;;;;22.60;11.33;;;;;;;;;;4910745;29;20338;-82
2023/12/03 06:17:34;;;;;;;20.23;11.60;;;;;;;;;;4915352;29;20619;-82
2023/12/03 06:19:59;;;;;;;23.55;11.68;;;;;;;;;;4916766;29;20477;-82
2023/12/03 06:22:24;;;;;;;22.27;12.32;;;;;;;;;;4915525;29;20032;-82
2023/12/03 06:24:50;;;;;;;23.67;12.67;;;;;;;;;;4920961;29;20050;-82
2023/12/03 06:27:15;;;;;;;25.17;13.10;;;;;;;;;;4911390;29;20791;-82
2023/12/03 06:29:40;;;;;;;27.20;13.25;;;;;;;;;;4915665;29;20028;-81
2023/12/03 06:32:05;;;;;;;22.38;11.20;;;;;;;;;;4912696;29;20481;-81
2023/12/03 06:34:31;;;;;;;24.27;11.80;;;;;;;;;;4915043;29;20052;-82
2023/12/03 06:36:57;;;;;;;24.53;13.80;;;;;;;;;;4928076;29;20275;-82
2023/12/03 06:39:22;;;;;;;26.25;13.65;;;;;;;;;;4929394;29;20282;-82
2023/12/03 06:41:48;;;;;;;33.70;14.90;;;;;;;;;;4914634;29;20473;-82
2023/12/03 06:44:14;;;;;;;23.55;12.02;;;;;;;;;;4907835;29;20267;-81
2023/12/03 06:46:39;;;;;;;23.07;12.47;;;;;;;;;;4914636;29;20036;-81
2023/12/03 06:49:05;;;;;;;23.17;11.88;;;;;;;;;;4914431;29;20317;-81
2023/12/03 06:51:30;;;;;;;28.07;12.70;;;;;;;;;;4915970;29;20028;-81
2023/12/03 06:53:56;;;;;;;22.97;11.17;;;;;;;;;;4911964;29;20270;-81
2023/12/03 06:56:22;;;;;;;25.13;12.40;;;;;;;;;;4927746;29;20311;-80
2023/12/03 06:58:47;;;;;;;21.67;12.05;;;;;;;;;;4915645;29;20032;-82
2023/12/03 07:01:13;;;;;;;24.37;11.00;;;;;;;;;;4912386;29;20437;-81
2023/12/03 07:03:38;;;;;;;22.48;10.73;;;;;;;;;;4915879;29;20266;-82
2023/12/03 07:06:03;;;;;;;22.00;11.13;;;;;;;;;;4906876;29;20039;-82
2023/12/03 07:08:28;;;;;;;24.60;11.48;;;;;;;;;;4912866;29;20290;-81
2023/12/03 07:10:54;;;;;;;19.40;10.85;;;;;;;;;;4909690;29;20491;-82
2023/12/03 07:13:20;;;;;;;21.25;11.25;;;;;;;;;;4908524;29;20036;-82
2023/12/03 07:15:45;;;;;;;25.30;11.90;;;;;;;;;;4915025;29;20102;-82
2023/12/03 07:18:10;;;;;;;19.10;10.77;;;;;;;;;;4912473;29;20270;-82
2023/12/03 07:20:35;;;;;;;22.97;12.20;;;;;;;;;;4909061;29;20358;-82
2023/12/03 07:23:00;;;;;;;32.67;14.80;;;;;;;;;;4914564;29;20333;-82
2023/12/03 07:25:26;;;;;;;23.50;13.47;;;;;;;;;;4928597;29;20346;-82
2023/12/03 07:27:51;;;;;;;21.80;11.82;;;;;;;;;;4915327;29;20408;-82
2023/12/03 07:30:17;;;;;;;26.90;12.18;;;;;;;;;;4909104;29;20476;-82
2023/12/03 07:32:42;;;;;;;23.25;12.82;;;;;;;;;;4928469;29;20020;-82
2023/12/03 07:35:07;;;;;;;26.10;13.50;;;;;;;;;;4929881;29;20496;-81
2023/12/03 07:37:33;;;;;;;30.80;14.98;;;;;;;;;;4929207;29;20291;-81
2023/12/03 07:39:58;;;;;;;32.33;16.70;;;;;;;;;;4924331;29;20024;-81
2023/12/03 07:42:26;;;;;;;23.53;13.17;;;;;;;;;;4913859;29;20274;-82
2023/12/03 07:44:51;;;;;;;28.42;14.88;;;;;;;;;;4913200;29;20274;-82
2023/12/03 07:47:17;;;;;;;31.45;14.70;;;;;;;;;;4910074;29;20028;-82
2023/12/03 07:49:42;;;;;;;27.37;14.37;;;;;;;;;;4903667;29;20119;-81
2023/12/03 07:52:07;;;;;;;31.27;15.50;;;;;;;;;;4911477;29;20357;-82
2023/12/03 07:54:33;;;;;;;27.60;14.03;;;;;;;;;;4913417;29;20104;-82
2023/12/03 07:56:58;;;;;;;30.15;15.35;;;;;;;;;;4913460;29;20345;-82
2023/12/03 07:59:23;;;;;;;28.90;13.63;;;;;;;;;;4929422;29;20024;-82
2023/12/03 08:01:48;;;;;;;29.75;14.68;;;;;;;;;;4914298;29;20277;-82
2023/12/03 08:04:14;;;;;;;30.48;12.70;;;;;;;;;;4914704;29;20027;-82
2023/12/03 08:06:39;;;;;;;27.50;14.38;;;;;;;;;;4913446;29;20106;-82
2023/12/03 08:09:05;;;;;;;24.88;14.00;;;;;;;;;;4927789;29;20028;-82
2023/12/03 08:11:30;;;;;;;21.90;12.38;;;;;;;;;;4914113;29;20488;-82
2023/12/03 08:13:56;;;;;;;24.27;13.60;;;;;;;;;;4927184;29;20068;-82
2023/12/03 08:16:22;;;;;;;25.50;12.98;;;;;;;;;;4910489;29;20013;-82
2023/12/03 08:18:47;;;;;;;32.35;14.77;;;;;;;;;;4928842;29;20020;-82
2023/12/03 08:21:13;;;;;;;29.27;15.88;;;;;;;;;;4928053;29;20020;-82
2023/12/03 08:23:38;;;;;;;29.98;13.75;;;;;;;;;;4928300;29;20126;-82
2023/12/03 08:26:04;;;;;;;25.88;13.20;;;;;;;;;;4913024;29;20031;-81
2023/12/03 08:28:29;;;;;;;24.77;13.65;;;;;;;;;;4927428;29;20072;-82
2023/12/03 08:30:55;;;;;;;29.35;13.93;;;;;;;;;;4914090;29;20032;-82
2023/12/03 08:33:20;;;;;;;28.00;13.77;;;;;;;;;;4905247;29;20043;-83
2023/12/03 08:35:45;;;;;;;25.60;13.18;;;;;;;;;;4913291;29;20024;-82
2023/12/03 08:38:10;;;;;;;31.63;15.97;;;;;;;;;;4923449;29;20024;-83
2023/12/03 08:40:35;;;;;;;32.97;17.90;;;;;;;;;;4912198;29;20396;-83
2023/12/03 08:43:01;;;;;;;29.00;15.77;;;;;;;;;;4928057;29;20365;-83
2023/12/03 08:45:26;;;;;;;36.85;18.70;;;;;;;;;;4913626;29;20333;-83
2023/12/03 08:47:51;;;;;;;31.13;18.40;;;;;;;;;;4925179;29;20040;-83
2023/12/03 08:50:17;;;;;;;39.35;19.02;;;;;;;;;;4916191;29;20028;-83
2023/12/03 08:52:42;;;;;;;43.13;20.25;;;;;;;;;;4932212;29;20024;-83
2023/12/03 08:55:08;;;;;;;37.40;20.37;;;;;;;;;;4907947;29;20095;-83
2023/12/03 08:57:33;;;;;;;36.20;18.98;;;;;;;;;;4907499;29;20412;-83
2023/12/03 08:59:58;;;;;;;33.90;17.17;;;;;;;;;;4914668;29;20025;-83
2023/12/03 09:02:23;;;;;;;33.07;16.73;;;;;;;;;;4915961;29;20031;-83
2023/12/03 09:04:51;;;;;;;36.42;19.70;;;;;;;;;;4927619;29;20397;-83
2023/12/03 09:07:16;;;;;;;30.73;16.55;;;;;;;;;;4910970;29;20464;-83
2023/12/03 09:09:42;;;;;;;31.50;17.60;;;;;;;;;;4916972;29;20056;-83
2023/12/03 09:12:07;;;;;;;40.85;21.17;;;;;;;;;;4911948;29;20031;-84
2023/12/03 09:14:32;;;;;;;39.55;20.98;;;;;;;;;;4931618;29;20508;-84
2023/12/03 09:16:58;;;;;;;33.23;18.57;;;;;;;;;;4913838;29;20395;-84
2023/12/03 09:19:24;;;;;;;32.58;18.10;;;;;;;;;;4916814;29;20262;-83
2023/12/03 09:21:49;;;;;;;27.25;16.20;;;;;;;;;;4912147;29;20012;-83
2023/12/03 09:24:15;;;;;;;24.47;13.40;;;;;;;;;;4915606;29;20052;-84
2023/12/03 09:26:43;;;;;;;25.40;13.73;;;;;;;;;;4915906;29;20267;-84
2023/12/03 09:29:10;;;;;;;23.25;13.93;;;;;;;;;;4914815;29;20075;-85
2023/12/03 09:31:35;;;;;;;25.08;14.27;;;;;;;;;;4917567;29;20052;-86
2023/12/03 09:34:01;;;;;;;24.42;12.40;;;;;;;;;;4916232;29;20086;-84
2023/12/03 09:36:26;;;;;;;22.83;13.30;;;;;;;;;;4915157;29;20036;-85
2023/12/03 09:38:52;;;;;;;24.65;13.90;;;;;;;;;;4931425;29;20275;-84
2023/12/03 09:41:19;;;;;;;22.57;11.97;;;;;;;;;;4917823;29;20366;-84
2023/12/03 09:43:45;;;;;;;24.45;13.23;;;;;;;;;;4909321;29;20274;-84
2023/12/03 09:46:12;;;;;;;21.20;11.65;;;;;;;;;;4917048;29;20035;-84
2023/12/03 09:48:40;;;;;;;19.80;11.00;;;;;;;;;;4917822;29;20048;-85
2023/12/03 09:51:06;;;;;;;20.13;12.02;;;;;;;;;;4910050;29;20028;-84
2023/12/03 09:53:33;;;;;;;22.15;11.48;;;;;;;;;;4916218;29;20032;-84
2023/12/03 09:55:59;;;;;;;19.25;10.38;;;;;;;;;;4917650;29;20027;-84
2023/12/03 09:58:24;;;;;;;18.73;11.05;;;;;;;;;;4918291;29;20028;-84
2023/12/03 10:00:52;;;;;;;20.73;10.27;;;;;;;;;;4932123;29;20055;-83
2023/12/03 10:03:17;;;;;;;19.38;10.70;;;;;;;;;;4916171;29;20020;-84
2023/12/03 10:05:44;;;;;;;22.40;10.68;;;;;;;;;;4929760;29;20043;-84
2023/12/03 10:08:09;;;;;;;19.17;10.63;;;;;;;;;;4910633;29;20020;-84
2023/12/03 10:10:36;;;;;;;18.55;10.07;;;;;;;;;;4908655;29;20524;-84
2023/12/03 10:13:03;;;;;;;21.08;11.00;;;;;;;;;;4930679;29;20563;-84
2023/12/03 10:15:28;;;;;;;21.20;11.57;;;;;;;;;;4917450;29;20487;-84
2023/12/03 10:17:53;;;;;;;19.03;10.23;;;;;;;;;;4916619;29;20024;-84
2023/12/03 10:20:22;;;;;;;19.02;9.23;;;;;;;;;;4905824;29;20342;-84
2023/12/03 10:22:47;;;;;;;21.30;9.70;;;;;;;;;;4913509;29;20103;-83
2023/12/03 10:25:26;;;;;;;18.73;10.48;;;;;;;;;;4931102;29;20118;-82
2023/12/03 10:27:52;;;;;;;18.23;10.10;;;;;;;;;;4915717;29;20063;-83
2023/12/03 10:30:17;;;;;;;18.30;10.43;;;;;;;;;;4931531;29;20036;-83
2023/12/03 10:32:44;;;;;;;19.45;11.18;;;;;;;;;;4931506;29;20016;-82
2023/12/03 10:35:09;;;;;;;18.55;10.45;;;;;;;;;;4917579;29;20067;-83
2023/12/03 10:37:35;;;;;;;22.73;10.48;;;;;;;;;;4910366;29;20024;-82
2023/12/03 10:40:00;;;;;;;21.07;10.00;;;;;;;;;;4911104;29;20032;-83
2023/12/03 10:42:25;;;;;;;18.70;9.80;;;;;;;;;;4914789;29;20354;-83
2023/12/03 10:44:51;;;;;;;18.27;10.13;;;;;;;;;;4931316;29;20672;-82
2023/12/03 10:47:17;;;;;;;20.77;9.73;;;;;;;;;;4932154;29;20067;-83
2023/12/03 10:49:43;;;;;;;20.27;11.10;;;;;;;;;;4910391;29;20365;-83
2023/12/03 10:52:09;;;;;;;18.00;10.20;;;;;;;;;;4924788;29;20401;-83
2023/12/03 10:54:34;;;;;;;20.85;10.10;;;;;;;;;;4915896;29;20058;-83
2023/12/03 10:57:01;;;;;;;22.10;10.20;;;;;;;;;;4912769;29;20024;-84
2023/12/03 10:59:29;;;;;;;19.67;9.30;;;;;;;;;;4914795;29;20301;-84
2023/12/03 11:01:54;;;;;;;19.25;10.05;;;;;;;;;;4926918;29;20103;-83
2023/12/03 11:04:19;;;;;;;19.65;8.95;;;;;;;;;;4915244;29;20028;-83
2023/12/03 11:06:46;;;;;;;16.17;9.27;;;;;;;;;;4922586;29;20441;-83
2023/12/03 11:09:12;;;;;;;16.27;8.75;;;;;;;;;;4905171;29;20032;-84
2023/12/03 11:11:40;;;;;;;17.45;8.82;;;;;;;;;;4909806;29;20151;-84
2023/12/03 11:14:05;;;;;;;17.00;8.27;;;;;;;;;;4915427;29;20028;-86
2023/12/03 11:16:33;;;;;;;16.10;9.27;;;;;;;;;;4925654;29;20046;-81
2023/12/03 11:19:03;;;;;;;19.65;9.35;;;;;;;;;;4931156;29;20274;-82
2023/12/03 11:21:33;;;;;;;19.02;7.75;;;;;;;;;;4930731;29;20036;-81
2023/12/03 11:24:05;;;;;;;18.52;9.52;;;;;;;;;;4915652;29;20529;-81
2023/12/03 11:26:30;;;;;;;16.47;8.87;;;;;;;;;;4916807;29;20024;-81
2023/12/03 11:28:57;;;;;;;13.90;8.13;;;;;;;;;;4915669;29;20099;-81
2023/12/03 11:31:23;;;;;;;19.38;8.85;;;;;;;;;;4929088;29;20067;-81
2023/12/03 11:33:58;;;;;;;16.33;8.18;;;;;;;;;;4913012;29;20028;-81
2023/12/03 11:36:34;;;;;;;16.30;8.90;;;;;;;;;;4928869;29;20016;-81
2023/12/03 11:39:00;;;;;;;19.67;8.70;;;;;;;;;;4924282;29;20393;-81
2023/12/03 11:41:25;;;;;;;15.40;8.43;;;;;;;;;;4913651;29;20036;-81
2023/12/03 11:43:50;;;;;;;14.98;7.85;;;;;;;;;;4927828;29;20563;-81
2023/12/03 11:46:16;;;;;;;18.52;8.90;;;;;;;;;;4911584;29;20032;-81
2023/12/03 11:48:41;;;;;;;17.73;8.50;;;;;;;;;;4913433;29;20032;-81
2023/12/03 11:51:08;;;;;;;15.63;8.65;;;;;;;;;;4911513;29;20267;-81
2023/12/03 11:53:56;;;;;;;15.88;8.05;;;;;;;;;;4925272;29;20046;-81
2023/12/03 11:56:22;;;;;;;15.50;7.65;;;;;;;;;;4914117;29;20485;-81
2023/12/03 11:58:47;;;;;;;17.42;8.63;;;;;;;;;;4912997;29;20067;-81
2023/12/03 12:01:13;;;;;;;15.53;8.67;;;;;;;;;;4912464;29;20047;-81
2023/12/03 12:03:38;;;;;;;15.25;8.05;;;;;;;;;;4913060;29;20270;-81
2023/12/03 12:06:03;;;;;;;15.68;8.77;;;;;;;;;;4924896;29;20034;-81
2023/12/03 12:08:28;;;;;;;17.27;8.07;;;;;;;;;;4925752;29;20027;-81
2023/12/03 12:10:54;;;;;;;14.80;7.50;;;;;;;;;;4928080;29;20135;-81
2023/12/03 12:13:19;;;;;;;12.40;6.32;;;;;;;;;;4914697;29;20619;-81
2023/12/03 12:15:44;;;;;;;13.48;7.22;;;;;;;;;;4912440;29;20385;-81
2023/12/03 12:18:10;;;;;;;16.17;7.25;;;;;;;;;;4914310;29;20020;-81
2023/12/03 12:20:35;;;;;;;17.30;8.20;;;;;;;;;;4928094;29;20071;-81
2023/12/03 12:23:00;;;;;;;12.77;7.15;;;;;;;;;;4907418;29;20042;-81
2023/12/03 12:25:26;;;;;;;16.03;7.53;;;;;;;;;;4910803;29;20020;-81
2023/12/03 12:27:52;;;;;;;11.80;6.60;;;;;;;;;;4927643;29;20696;-81
2023/12/03 12:30:18;;;;;;;10.85;6.07;;;;;;;;;;4913121;29;20036;-81
2023/12/03 12:32:44;;;;;;;14.45;8.15;;;;;;;;;;4909140;29;20072;-81
2023/12/03 12:35:10;;;;;;;14.77;7.18;;;;;;;;;;4926603;29;20017;-81
2023/12/03 12:37:35;;;;;;;13.65;7.55;;;;;;;;;;4911473;29;20170;-81
2023/12/03 12:40:04;;;;;;;14.90;6.63;;;;;;;;;;4928820;29;20039;-81
2023/12/03 12:42:30;;;;;;;15.13;7.05;;;;;;;;;;4908993;29;20024;-82
2023/12/03 12:44:55;;;;;;;15.65;8.18;;;;;;;;;;4911483;29;20035;-82
2023/12/03 12:47:21;;;;;;;13.00;6.50;;;;;;;;;;4925391;29;20530;-82
2023/12/03 12:49:53;;;;;;;15.80;7.60;;;;;;;;;;4912567;29;20516;-83
2023/12/03 12:52:19;;;;;;;14.27;7.28;;;;;;;;;;4903193;29;20258;-82
2023/12/03 12:54:51;;;;;;;11.60;6.57;;;;;;;;;;4904464;29;20539;-81
2023/12/03 12:57:16;;;;;;;13.52;7.32;;;;;;;;;;4921434;29;20793;-81
2023/12/03 12:59:42;;;;;;;16.73;7.07;;;;;;;;;;4906306;29;20029;-81
2023/12/03 13:02:07;;;;;;;15.55;6.82;;;;;;;;;;4914424;29;20619;-81
2023/12/03 13:04:34;;;;;;;11.48;6.32;;;;;;;;;;4927155;29;20468;-81
2023/12/03 13:07:02;;;;;;;13.15;7.55;;;;;;;;;;4912534;29;20036;-81
2023/12/03 13:09:28;;;;;;;13.18;7.53;;;;;;;;;;4906883;29;20083;-81
2023/12/03 13:11:53;;;;;;;10.88;6.75;;;;;;;;;;4906248;29;20033;-81
2023/12/03 13:14:18;;;;;;;15.87;6.80;;;;;;;;;;4913244;29;20020;-81
2023/12/03 13:16:43;;;;;;;12.43;6.77;;;;;;;;;;4903939;29;20293;-81
2023/12/03 13:19:09;;;;;;;15.30;7.10;;;;;;;;;;4928709;29;20271;-81
2023/12/03 13:21:34;;;;;;;17.17;7.33;;;;;;;;;;4913919;29;20619;-81
2023/12/03 13:23:59;;;;;;;15.05;8.18;;;;;;;;;;4929690;29;20663;-81
2023/12/03 13:26:24;;;;;;;16.00;8.70;;;;;;;;;;4929991;29;20119;-81
2023/12/03 13:28:49;;;;;;;16.47;8.63;;;;;;;;;;4913336;29;20353;-81
2023/12/03 13:31:15;;;;;;;17.33;9.57;;;;;;;;;;4928419;29;20282;-81
2023/12/03 13:33:40;;;;;;;18.10;8.83;;;;;;;;;;4909137;29;20260;-81
2023/12/03 13:36:05;;;;;;;17.00;8.93;;;;;;;;;;4915553;29;20282;-81
2023/12/03 13:38:31;;;;;;;16.35;7.80;;;;;;;;;;4921139;29;20264;-81
2023/12/03 13:40:56;;;;;;;12.13;7.72;;;;;;;;;;4915217;29;20370;-81
2023/12/03 13:43:22;;;;;;;14.80;7.53;;;;;;;;;;4917518;29;20504;-81
2023/12/03 13:45:47;;;;;;;16.50;8.75;;;;;;;;;;4909758;29;20052;-81
2023/12/03 13:48:12;;;;;;;17.17;8.70;;;;;;;;;;4929162;29;20151;-81
2023/12/03 13:50:39;;;;;;;14.65;8.18;;;;;;;;;;4905188;29;20287;-81
2023/12/03 13:53:04;;;;;;;20.10;8.57;;;;;;;;;;4914653;29;20031;-81
2023/12/03 13:55:29;;;;;;;16.07;8.97;;;;;;;;;;4916383;29;20020;-81
2023/12/03 13:57:54;;;;;;;15.13;8.68;;;;;;;;;;4915736;29;20275;-81
2023/12/03 14:00:20;;;;;;;15.33;8.73;;;;;;;;;;4922147;29;20080;-81
2023/12/03 14:02:46;;;;;;;17.63;9.55;;;;;;;;;;4927622;29;20326;-81
2023/12/03 14:05:11;;;;;;;16.38;8.80;;;;;;;;;;4912239;29;20055;-81
2023/12/03 14:07:36;;;;;;;14.57;9.13;;;;;;;;;;4914290;29;20430;-81
2023/12/03 14:10:02;;;;;;;15.07;8.07;;;;;;;;;;4915704;29;20047;-80
2023/12/03 14:12:27;;;;;;;18.27;8.80;;;;;;;;;;4916580;29;20274;-82